Forest Ranch, CA (95942)

1:37 PM PDT on August 30, 2015 (GMT -0700)
Cohasset - Cohasset Loop | | Change Station
CLOSE
Current Station
Personal Weather Station
Location: Cohasset, CA
Elevation: 3100 ft
Nearby Weather Stations

Elev 3100 ft 39.94 °N, 121.73 °W | Updated 7 seconds ago

Clear
Clear
75.6 °F
Feels Like 77 °F
N
5.8
Wind Variable Wind from NW
Gusts 5.8 mph

Today
High -- | Low -- °F
--% Chance of Precip.
Yesterday
High -- | Low -- °F
Precip. -- in
6:31 AM 7:41 PM
Full, 98% visible
Pressure 30.00 in
Visibility 40.0 miles
Clouds Few 20000 ft
Heat Index 77 °F
Dew Point 45 °F
Humidity 34%
Rainfall 0.06 in
Snow Depth Not available.
UV 9 out of 12
Pollen 7.60 out of 12
Air Quality Not available.
Flu Activity Not available.
METAR KCIC 301950Z 31005KT 40SM FEW200 27/09 A3000
Pressure 30.00 in
Visibility 40.0 miles
Clouds Few 20000 ft
Heat Index 77 °F
Dew Point 45 °F
Humidity 34%
Rainfall 0.06 in
Snow Depth Not available.
UV 9 out of 12
Pollen 7.60 out of 12
Air Quality Not available.
Flu Activity Not available.
METAR KCIC 301950Z 31005KT 40SM FEW200 27/09 A3000

10-Day Weather Forecast

×

Almanac

Astronomy

Aug. 30, 2015 Rise Set
Actual Time
Civil Twilight
Nautical Twilight
Astronomical Twilight
Moon
Length of Visible Light
Length of Day
Tomorrow will be .
, % of the Moon is Illuminated

Today's Extremes

State Highs State Lows

Community

WunderPhotos

Upload Photos

1,851,056 photos uploaded!

WunderBlogs® & News

Nearby

Air Quality

  Air Quality AQ Index Pollutant
Not available.

Snow Depth

Station Depth Elevation

Earthquake Activity

City Distance Mag. Time & Date
Minimum magnitude displayed is 2.5.

Coastal Water Temperatures

Place Temperature

Stations

Nearby Weather Stations

Station Location Temp. Windchill Dew Point Humidity Wind Precip. Elev Updated Type